Time;durP1;ratioP1;P1;durP2;ratioP2;P2;SDS_P1;SDS_P2;PMS_P1;PMS_P2;Temp;Humidity;BMP_temperature;BMP_pressure;BME280_temperature;BME280_humidity;BME280_pressure;Samples;Min_cycle;Max_cycle;Signal;HPM_P1;HPM_P2
2021/01/10 00:01:57;;;;;;;;;;;15.80;52.30;;;;;;5057374;28;19924;-56
2021/01/10 00:04:23;;;;;;;;;;;15.80;52.30;;;;;;5051719;28;19932;-57
2021/01/10 00:06:51;;;;;;;;;;;15.80;52.30;;;;;;5037673;28;19999;-55
2021/01/10 00:09:17;;;;;;;;;;;15.80;52.30;;;;;;5048413;28;19928;-57
2021/01/10 00:11:43;;;;;;;;;;;15.80;52.30;;;;;;5057756;28;19925;-57
2021/01/10 00:14:09;;;;;;;;;;;15.80;52.30;;;;;;5051594;28;19928;-57
2021/01/10 00:16:36;;;;;;;;;;;15.70;52.30;;;;;;5057128;28;20275;-57
2021/01/10 00:19:03;;;;;;;;;;;15.80;52.30;;;;;;5046964;28;19928;-57
2021/01/10 00:21:38;;;;;;;;;;;15.70;52.30;;;;;;5059984;28;20653;-57
2021/01/10 00:24:04;;;;;;;;;;;15.70;52.30;;;;;;5048285;28;19937;-55
2021/01/10 00:26:32;;;;;;;;;;;15.70;52.30;;;;;;5062359;28;19928;-57
2021/01/10 00:28:58;;;;;;;;;;;15.70;52.30;;;;;;5044696;28;24886;-57
2021/01/10 00:31:28;;;;;;;;;;;15.70;52.90;;;;;;5062426;28;19929;-58
2021/01/10 00:33:54;;;;;;;;;;;15.70;52.30;;;;;;5049828;28;19929;-56
2021/01/10 00:36:21;;;;;;;;;;;15.70;52.30;;;;;;5059821;28;19928;-56
2021/01/10 00:38:47;;;;;;;;;;;15.70;52.30;;;;;;5059673;28;19931;-57
2021/01/10 00:41:13;;;;;;;;;;;15.70;52.20;;;;;;5054921;28;20320;-57
2021/01/10 00:43:39;;;;;;;;;;;15.70;52.30;;;;;;5059804;28;19925;-57
2021/01/10 00:46:05;;;;;;;;;;;15.70;52.30;;;;;;5056674;28;20069;-56
2021/01/10 00:48:32;;;;;;;;;;;15.70;52.20;;;;;;5062138;28;19929;-55
2021/01/10 00:50:58;;;;;;;;;;;15.70;52.30;;;;;;5059239;28;19928;-56
2021/01/10 00:53:24;;;;;;;;;;;15.60;52.20;;;;;;5065237;28;19960;-55
2021/01/10 00:55:50;;;;;;;;;;;15.70;52.30;;;;;;5061225;28;20092;-56
2021/01/10 00:58:17;;;;;;;;;;;15.60;52.30;;;;;;5063871;28;20477;-56
2021/01/10 01:00:43;;;;;;;;;;;15.60;52.30;;;;;;5047738;28;19939;-55
2021/01/10 01:03:09;;;;;;;;;;;15.60;52.30;;;;;;5063159;28;20584;-56
2021/01/10 01:05:37;;;;;;;;;;;15.60;52.30;;;;;;5051774;28;20026;-55
2021/01/10 01:08:05;;;;;;;;;;;15.60;52.40;;;;;;5065789;28;20411;-55
2021/01/10 01:10:31;;;;;;;;;;;15.60;52.30;;;;;;5048068;28;19928;-55
2021/01/10 01:12:57;;;;;;;;;;;15.60;52.30;;;;;;5066656;28;19924;-55
2021/01/10 01:15:23;;;;;;;;;;;15.60;52.30;;;;;;5062147;28;19925;-57
2021/01/10 01:17:50;;;;;;;;;;;15.60;52.40;;;;;;5057058;28;19928;-55
2021/01/10 01:20:16;;;;;;;;;;;15.60;52.30;;;;;;5062653;28;19932;-55
2021/01/10 01:22:42;;;;;;;;;;;15.60;52.40;;;;;;5055927;28;19933;-57
2021/01/10 01:25:09;;;;;;;;;;;15.60;52.30;;;;;;5062609;28;19928;-56
2021/01/10 01:27:35;;;;;;;;;;;15.60;52.30;;;;;;5056102;28;19934;-55
2021/01/10 01:30:03;;;;;;;;;;;15.50;52.30;;;;;;5066516;28;19931;-55
2021/01/10 01:32:30;;;;;;;;;;;15.50;52.30;;;;;;5056328;28;19931;-55
2021/01/10 01:35:01;;;;;;;;;;;15.50;52.30;;;;;;5057567;28;19932;-55
2021/01/10 01:37:28;;;;;;;;;;;15.50;52.30;;;;;;5057243;28;19925;-55
2021/01/10 01:39:54;;;;;;;;;;;15.60;52.40;;;;;;5059710;28;19951;-55
2021/01/10 01:42:20;;;;;;;;;;;15.50;52.30;;;;;;5053691;28;20475;-57
2021/01/10 01:44:46;;;;;;;;;;;15.50;52.30;;;;;;5057571;28;19932;-57
2021/01/10 01:47:18;;;;;;;;;;;15.50;52.30;;;;;;5055606;28;19960;-55
2021/01/10 01:49:45;;;;;;;;;;;15.50;52.40;;;;;;5057893;28;19936;-55
2021/01/10 01:52:11;;;;;;;;;;;15.50;52.40;;;;;;5058785;28;19929;-55
2021/01/10 01:54:37;;;;;;;;;;;15.50;52.40;;;;;;5057869;28;20152;-57
2021/01/10 01:57:04;;;;;;;;;;;15.50;52.40;;;;;;5054358;28;20118;-57
2021/01/10 01:59:30;;;;;;;;;;;15.50;52.40;;;;;;5053363;28;19924;-56
2021/01/10 02:01:56;;;;;;;;;;;15.50;52.40;;;;;;5059438;28;20372;-56
2021/01/10 02:04:27;;;;;;;;;;;15.50;52.40;;;;;;5053684;28;19985;-57
2021/01/10 02:07:12;;;;;;;;;;;15.50;52.40;;;;;;5053568;28;19932;-57
2021/01/10 02:09:50;;;;;;;;;;;15.50;52.40;;;;;;5049657;28;19928;-56
2021/01/10 02:12:17;;;;;;;;;;;15.40;52.40;;;;;;5056709;28;19931;-57
2021/01/10 02:14:49;;;;;;;;;;;15.50;52.40;;;;;;5053261;28;19924;-55
2021/01/10 02:17:16;;;;;;;;;;;15.40;52.40;;;;;;5062145;28;20009;-55
2021/01/10 02:20:00;;;;;;;;;;;15.40;52.40;;;;;;5051398;28;19932;-55
2021/01/10 02:22:28;;;;;;;;;;;15.40;52.40;;;;;;5053814;28;19925;-57
2021/01/10 02:24:54;;;;;;;;;;;15.40;52.40;;;;;;5055859;28;19924;-57
2021/01/10 02:27:21;;;;;;;;;;;15.40;52.40;;;;;;5063851;28;20296;-56
2021/01/10 02:29:48;;;;;;;;;;;15.40;52.40;;;;;;5058551;28;19932;-55
2021/01/10 02:32:16;;;;;;;;;;;15.40;52.40;;;;;;5053009;28;19924;-55
2021/01/10 02:34:43;;;;;;;;;;;15.50;52.40;;;;;;5055242;28;19925;-56
2021/01/10 02:37:09;;;;;;;;;;;15.40;52.40;;;;;;5062240;28;19940;-55
2021/01/10 02:39:51;;;;;;;;;;;15.40;52.40;;;;;;5053877;28;19928;-56
2021/01/10 02:42:34;;;;;;;;;;;15.40;52.40;;;;;;5056321;28;20373;-57
2021/01/10 02:45:04;;;;;;;;;;;15.40;52.40;;;;;;5052206;28;19924;-55
2021/01/10 02:47:30;;;;;;;;;;;15.40;52.40;;;;;;5064541;28;19931;-56
2021/01/10 02:49:56;;;;;;;;;;;15.30;52.50;;;;;;5055628;28;19964;-56
2021/01/10 02:52:23;;;;;;;;;;;15.30;52.40;;;;;;5056414;28;19983;-56
2021/01/10 02:54:49;;;;;;;;;;;15.40;52.50;;;;;;5058066;28;19925;-56
2021/01/10 02:57:32;;;;;;;;;;;15.30;52.70;;;;;;5059222;28;19928;-56
2021/01/10 03:00:00;;;;;;;;;;;15.40;52.50;;;;;;5057512;28;19935;-56
2021/01/10 03:02:26;;;;;;;;;;;15.30;52.50;;;;;;5056262;28;19925;-56
2021/01/10 03:04:53;;;;;;;;;;;15.40;52.50;;;;;;5065143;28;19931;-57
2021/01/10 03:07:20;;;;;;;;;;;15.30;52.50;;;;;;5053983;28;19931;-56
2021/01/10 03:09:46;;;;;;;;;;;15.30;52.40;;;;;;5057592;28;20382;-56
2021/01/10 03:12:14;;;;;;;;;;;15.30;52.40;;;;;;5059933;28;19928;-57
2021/01/10 03:14:41;;;;;;;;;;;15.30;52.50;;;;;;5067521;28;19924;-56
2021/01/10 03:17:08;;;;;;;;;;;15.30;52.50;;;;;;5060669;28;20119;-56
2021/01/10 03:19:35;;;;;;;;;;;15.30;52.50;;;;;;5059593;28;19928;-56
2021/01/10 03:22:02;;;;;;;;;;;15.30;52.50;;;;;;5056980;28;19947;-56
2021/01/10 03:24:28;;;;;;;;;;;15.30;52.50;;;;;;5058037;28;19925;-57
2021/01/10 03:26:54;;;;;;;;;;;15.30;52.50;;;;;;5057560;28;19928;-56
2021/01/10 03:29:20;;;;;;;;;;;15.30;52.50;;;;;;5058035;28;20020;-56
2021/01/10 03:31:46;;;;;;;;;;;15.30;52.50;;;;;;5061089;28;20373;-56
2021/01/10 03:34:13;;;;;;;;;;;15.30;52.50;;;;;;5061428;28;19925;-56
2021/01/10 03:36:39;;;;;;;;;;;15.30;52.50;;;;;;5056411;28;19994;-56
2021/01/10 03:39:05;;;;;;;;;;;15.30;52.60;;;;;;5064201;28;19935;-56
2021/01/10 03:41:31;;;;;;;;;;;15.30;52.50;;;;;;5062591;28;19928;-56
2021/01/10 03:44:03;;;;;;;;;;;15.30;52.50;;;;;;5056350;28;19935;-56
2021/01/10 03:46:29;;;;;;;;;;;15.20;52.50;;;;;;5067848;28;20049;-56
2021/01/10 03:48:57;;;;;;;;;;;15.30;52.60;;;;;;5059771;28;19925;-56
2021/01/10 03:51:29;;;;;;;;;;;15.20;52.50;;;;;;5053917;28;20416;-56
2021/01/10 03:54:00;;;;;;;;;;;15.30;52.50;;;;;;5060425;28;20122;-56
2021/01/10 03:56:26;;;;;;;;;;;15.20;52.50;;;;;;5060579;28;19924;-56
2021/01/10 03:58:52;;;;;;;;;;;15.30;52.60;;;;;;5059610;28;19931;-57
2021/01/10 04:01:19;;;;;;;;;;;15.20;52.50;;;;;;5064201;28;20341;-56
2021/01/10 04:03:45;;;;;;;;;;;15.20;52.50;;;;;;5058170;28;19929;-56
2021/01/10 04:06:11;;;;;;;;;;;15.20;52.50;;;;;;5056263;28;19931;-56
2021/01/10 04:08:38;;;;;;;;;;;15.20;53.20;;;;;;5054850;28;20301;-56
2021/01/10 04:11:04;;;;;;;;;;;15.20;52.50;;;;;;5044069;28;19925;-57
2021/01/10 04:13:30;;;;;;;;;;;15.20;52.50;;;;;;5057400;28;19924;-56
2021/01/10 04:15:57;;;;;;;;;;;15.20;52.50;;;;;;5067990;28;19978;-57
2021/01/10 04:18:23;;;;;;;;;;;15.20;52.50;;;;;;5056938;28;19925;-55
2021/01/10 04:20:49;;;;;;;;;;;15.20;52.50;;;;;;5058437;28;19925;-55
2021/01/10 04:23:15;;;;;;;;;;;15.20;52.60;;;;;;5068436;28;19925;-56
2021/01/10 04:25:42;;;;;;;;;;;15.20;52.60;;;;;;5053045;28;20376;-55
2021/01/10 04:28:08;;;;;;;;;;;15.20;52.60;;;;;;5062876;28;19964;-55
2021/01/10 04:30:34;;;;;;;;;;;15.20;52.60;;;;;;5055969;28;20288;-58
2021/01/10 04:33:01;;;;;;;;;;;15.20;52.60;;;;;;5056283;28;20422;-55
2021/01/10 04:35:27;;;;;;;;;;;15.20;52.60;;;;;;5054726;28;19974;-55
2021/01/10 04:37:53;;;;;;;;;;;15.20;52.70;;;;;;5055993;28;19924;-56
2021/01/10 04:40:20;;;;;;;;;;;15.20;52.60;;;;;;5059269;28;20471;-56
2021/01/10 04:42:46;;;;;;;;;;;15.20;52.60;;;;;;5054279;28;19925;-56
2021/01/10 04:45:13;;;;;;;;;;;15.20;52.70;;;;;;5058104;28;20468;-56
2021/01/10 04:47:41;;;;;;;;;;;15.20;52.70;;;;;;5063304;28;19929;-56
2021/01/10 04:50:07;;;;;;;;;;;15.20;52.70;;;;;;5058264;28;19928;-56
2021/01/10 04:52:36;;;;;;;;;;;15.20;52.70;;;;;;5055256;28;20350;-56
2021/01/10 04:55:04;;;;;;;;;;;15.10;52.60;;;;;;5056668;28;19939;-55
2021/01/10 04:57:32;;;;;;;;;;;15.20;52.70;;;;;;5056208;28;19971;-55
2021/01/10 04:59:59;;;;;;;;;;;15.10;52.60;;;;;;5054999;28;20260;-55
2021/01/10 05:02:25;;;;;;;;;;;15.10;52.60;;;;;;5058478;28;20261;-55
2021/01/10 05:04:53;;;;;;;;;;;15.20;52.70;;;;;;5063748;28;20297;-55
2021/01/10 05:07:19;;;;;;;;;;;15.10;52.60;;;;;;5053130;28;19924;-55
2021/01/10 05:09:45;;;;;;;;;;;15.10;52.60;;;;;;5062862;28;19924;-55
2021/01/10 05:12:12;;;;;;;;;;;15.10;52.60;;;;;;5056132;28;19931;-56
2021/01/10 05:14:38;;;;;;;;;;;15.10;52.70;;;;;;5065398;28;19933;-55
2021/01/10 05:17:05;;;;;;;;;;;15.10;52.70;;;;;;5055516;28;19958;-55
2021/01/10 05:19:31;;;;;;;;;;;15.10;52.70;;;;;;5055734;28;19940;-55
2021/01/10 05:22:05;;;;;;;;;;;15.10;52.70;;;;;;5057011;28;19924;-55
2021/01/10 05:24:31;;;;;;;;;;;15.10;52.70;;;;;;5052470;28;19924;-55
2021/01/10 05:26:58;;;;;;;;;;;15.20;52.80;;;;;;5058259;28;19928;-55
2021/01/10 05:29:26;;;;;;;;;;;15.10;52.80;;;;;;5056985;28;19925;-55
2021/01/10 05:31:53;;;;;;;;;;;15.10;52.80;;;;;;5054165;28;19924;-57
2021/01/10 05:34:20;;;;;;;;;;;15.10;52.80;;;;;;5061989;28;20385;-57
2021/01/10 05:36:46;;;;;;;;;;;15.10;52.90;;;;;;5053702;28;19994;-55
2021/01/10 05:39:14;;;;;;;;;;;15.10;52.90;;;;;;5055165;28;19968;-55
2021/01/10 05:41:50;;;;;;;;;;;15.10;53.00;;;;;;5057200;28;20276;-55
2021/01/10 05:44:17;;;;;;;;;;;15.10;53.00;;;;;;5065518;28;19931;-56
2021/01/10 05:46:44;;;;;;;;;;;15.10;53.00;;;;;;5061574;28;19934;-55
2021/01/10 05:49:18;;;;;;;;;;;15.10;53.00;;;;;;5049544;28;19924;-55
2021/01/10 05:51:44;;;;;;;;;;;15.10;53.00;;;;;;5060950;28;20006;-55
2021/01/10 05:54:30;;;;;;;;;;;15.10;53.10;;;;;;5052747;28;20007;-56
2021/01/10 05:56:57;;;;;;;;;;;15.10;53.10;;;;;;5060727;28;19932;-56
2021/01/10 05:59:23;;;;;;;;;;;15.10;53.10;;;;;;5049272;28;19982;-55
2021/01/10 06:01:53;;;;;;;;;;;15.10;53.10;;;;;;5061088;28;20475;-56
2021/01/10 06:04:24;;;;;;;;;;;15.10;53.20;;;;;;5049900;28;19932;-56
2021/01/10 06:06:50;;;;;;;;;;;15.10;53.20;;;;;;5029270;28;19973;-54
2021/01/10 06:09:17;;;;;;;;;;;15.10;53.10;;;;;;5053625;28;19925;-55
2021/01/10 06:11:43;;;;;;;;;;;15.10;53.10;;;;;;5057744;28;20392;-55
2021/01/10 06:14:29;;;;;;;;;;;15.10;53.10;;;;;;5051657;28;19939;-56
2021/01/10 06:16:56;;;;;;;;;;;15.10;53.10;;;;;;5052258;28;19938;-56
2021/01/10 06:19:25;;;;;;;;;;;15.10;53.10;;;;;;5045032;28;19932;-55
2021/01/10 06:21:53;;;;;;;;;;;15.10;53.10;;;;;;5060431;28;20538;-56
2021/01/10 06:24:21;;;;;;;;;;;15.10;53.10;;;;;;5054025;28;20389;-55
2021/01/10 06:26:50;;;;;;;;;;;15.00;53.00;;;;;;5065128;28;19924;-55
2021/01/10 06:29:17;;;;;;;;;;;15.10;53.00;;;;;;5056374;28;19951;-55
2021/01/10 06:31:45;;;;;;;;;;;15.10;53.10;;;;;;5057896;28;20395;-55
2021/01/10 06:34:12;;;;;;;;;;;15.10;53.00;;;;;;5053319;28;19991;-55
2021/01/10 06:36:42;;;;;;;;;;;15.10;53.10;;;;;;5057718;28;20123;-55
2021/01/10 06:39:09;;;;;;;;;;;15.10;53.00;;;;;;5054849;28;19924;-57
2021/01/10 06:41:35;;;;;;;;;;;15.00;53.50;;;;;;5062280;28;20377;-56
2021/01/10 06:44:03;;;;;;;;;;;15.00;52.90;;;;;;5061431;28;19932;-56
2021/01/10 06:46:29;;;;;;;;;;;15.10;53.00;;;;;;5057936;28;19928;-56
2021/01/10 06:48:56;;;;;;;;;;;15.10;52.90;;;;;;5068582;28;19925;-56
2021/01/10 06:51:27;;;;;;;;;;;15.10;52.90;;;;;;5058611;28;19967;-55
2021/01/10 06:53:54;;;;;;;;;;;15.10;52.90;;;;;;5063584;28;20017;-56
2021/01/10 06:56:21;;;;;;;;;;;15.10;53.60;;;;;;5058853;28;19931;-56
2021/01/10 06:59:05;;;;;;;;;;;15.10;52.90;;;;;;5068196;28;20586;-56
2021/01/10 07:01:53;;;;;;;;;;;15.00;52.90;;;;;;5052366;28;19931;-56
2021/01/10 07:04:20;;;;;;;;;;;15.00;52.80;;;;;;5062438;28;20282;-56
2021/01/10 07:06:47;;;;;;;;;;;15.00;52.80;;;;;;5053573;28;19924;-56
2021/01/10 07:09:14;;;;;;;;;;;15.00;52.80;;;;;;5062564;28;19935;-56
2021/01/10 07:11:41;;;;;;;;;;;15.00;52.80;;;;;;5051141;28;19931;-56
2021/01/10 07:14:13;;;;;;;;;;;15.00;52.80;;;;;;5064756;28;19924;-56
2021/01/10 07:16:40;;;;;;;;;;;15.00;52.80;;;;;;5053903;28;20024;-56
2021/01/10 07:19:07;;;;;;;;;;;15.00;52.80;;;;;;5067603;28;19976;-56
2021/01/10 07:21:33;;;;;;;;;;;15.10;52.80;;;;;;5057632;28;19928;-56
2021/01/10 07:24:08;;;;;;;;;;;15.00;52.70;;;;;;5068094;28;19930;-56
2021/01/10 07:26:47;;;;;;;;;;;15.00;52.70;;;;;;5065032;28;20296;-56
2021/01/10 07:29:29;;;;;;;;;;;15.00;52.80;;;;;;5066438;28;19931;-56
2021/01/10 07:32:07;;;;;;;;;;;15.00;52.70;;;;;;5061397;28;19978;-58
2021/01/10 07:34:34;;;;;;;;;;;15.00;52.70;;;;;;5066408;28;20002;-58
2021/01/10 07:37:02;;;;;;;;;;;15.00;52.70;;;;;;5069518;28;19932;-57
2021/01/10 07:39:29;;;;;;;;;;;15.00;52.60;;;;;;5068829;28;19932;-57
2021/01/10 07:42:08;;;;;;;;;;;15.00;52.70;;;;;;5062482;28;20007;-56
2021/01/10 07:44:53;;;;;;;;;;;15.00;52.70;;;;;;5064205;28;19932;-56
2021/01/10 07:47:29;;;;;;;;;;;15.00;52.70;;;;;;5063209;28;19932;-56
2021/01/10 07:49:57;;;;;;;;;;;15.00;52.70;;;;;;5066386;28;19932;-55
2021/01/10 07:52:55;;;;;;;;;;;15.10;52.70;;;;;;5059441;28;21775;-58
2021/01/10 07:55:23;;;;;;;;;;;15.10;52.70;;;;;;5028649;28;19930;-56
2021/01/10 07:58:01;;;;;;;;;;;15.00;52.60;;;;;;5060328;28;19935;-56
2021/01/10 08:00:32;;;;;;;;;;;15.00;52.50;;;;;;5064297;28;20377;-55
2021/01/10 08:03:04;;;;;;;;;;;15.00;52.50;;;;;;5051884;28;19925;-56
2021/01/10 08:05:32;;;;;;;;;;;15.00;52.50;;;;;;5066108;28;20337;-55
2021/01/10 08:07:59;;;;;;;;;;;15.00;52.50;;;;;;5052788;28;20495;-56
2021/01/10 08:10:27;;;;;;;;;;;15.00;52.40;;;;;;5066939;28;19928;-57
2021/01/10 08:12:53;;;;;;;;;;;15.00;52.50;;;;;;5064491;28;19925;-57
2021/01/10 08:15:20;;;;;;;;;;;15.00;52.90;;;;;;5050528;28;20262;-56
2021/01/10 08:17:46;;;;;;;;;;;15.00;52.90;;;;;;5063583;28;19929;-58
2021/01/10 08:20:13;;;;;;;;;;;15.00;53.10;;;;;;5054205;28;20300;-56
2021/01/10 08:22:40;;;;;;;;;;;15.00;53.10;;;;;;5068290;28;19929;-55
2021/01/10 08:25:17;;;;;;;;;;;15.00;52.90;;;;;;5041002;28;19924;-56
2021/01/10 08:27:44;;;;;;;;;;;15.00;52.90;;;;;;5067396;28;19925;-55
2021/01/10 08:30:12;;;;;;;;;;;15.00;52.90;;;;;;5057755;28;20406;-55
2021/01/10 08:32:38;;;;;;;;;;;15.00;52.90;;;;;;5068354;28;20421;-56
2021/01/10 08:35:20;;;;;;;;;;;15.00;52.90;;;;;;5059673;28;20426;-56
2021/01/10 08:37:48;;;;;;;;;;;15.00;52.90;;;;;;5068098;28;20007;-57
2021/01/10 08:40:14;;;;;;;;;;;15.00;55.40;;;;;;5057846;28;20430;-57
2021/01/10 08:42:41;;;;;;;;;;;15.10;58.60;;;;;;5063559;28;20374;-57
2021/01/10 08:45:13;;;;;;;;;;;15.10;59.60;;;;;;5059827;28;20419;-56
2021/01/10 08:47:41;;;;;;;;;;;15.10;60.50;;;;;;5059719;28;19925;-55
2021/01/10 08:50:07;;;;;;;;;;;15.10;60.50;;;;;;5054298;28;20021;-54
2021/01/10 08:53:10;;;;;;;;;;;15.10;60.20;;;;;;5059825;28;20459;-55
2021/01/10 08:55:38;;;;;;;;;;;15.10;60.40;;;;;;5040759;28;19924;-56
2021/01/10 08:58:05;;;;;;;;;;;15.10;60.70;;;;;;5053440;28;20012;-55
2021/01/10 09:00:31;;;;;;;;;;;15.20;60.50;;;;;;5034871;28;19925;-55
2021/01/10 09:03:17;;;;;;;;;;;15.10;60.30;;;;;;5041996;28;19931;-55
2021/01/10 09:05:44;;;;;;;;;;;15.10;60.30;;;;;;5023866;28;19932;-57
2021/01/10 09:08:15;;;;;;;;;;;15.20;59.30;;;;;;5037042;28;19925;-57
2021/01/10 09:10:43;;;;;;;;;;;15.20;59.60;;;;;;5032292;28;22626;-56
2021/01/10 09:13:10;;;;;;;;;;;15.10;59.90;;;;;;5043856;28;20294;-56
2021/01/10 09:15:39;;;;;;;;;;;15.20;59.60;;;;;;5031424;28;19925;-56
2021/01/10 09:18:06;;;;;;;;;;;15.20;59.50;;;;;;5040684;28;19925;-59
2021/01/10 09:20:33;;;;;;;;;;;15.20;59.40;;;;;;5040803;28;19933;-56
2021/01/10 09:23:06;;;;;;;;;;;15.20;59.00;;;;;;5033961;28;20385;-57
2021/01/10 09:25:33;;;;;;;;;;;15.20;59.30;;;;;;5042261;28;19929;-55
2021/01/10 09:28:06;;;;;;;;;;;15.20;59.30;;;;;;5030127;28;20016;-55
2021/01/10 09:30:33;;;;;;;;;;;15.20;59.00;;;;;;5042650;28;20016;-57
2021/01/10 09:33:04;;;;;;;;;;;15.20;58.80;;;;;;5029461;28;20369;-56
2021/01/10 09:35:38;;;;;;;;;;;15.20;58.70;;;;;;5036834;28;19956;-56
2021/01/10 09:38:08;;;;;;;;;;;15.20;58.80;;;;;;5032288;28;20008;-56
2021/01/10 09:40:35;;;;;;;;;;;15.20;58.50;;;;;;5037960;28;20373;-55
2021/01/10 09:43:02;;;;;;;;;;;15.20;58.30;;;;;;5031508;28;19937;-57
2021/01/10 09:45:32;;;;;;;;;;;15.20;58.00;;;;;;5037347;28;19976;-56
2021/01/10 09:47:59;;;;;;;;;;;15.20;57.60;;;;;;5023641;28;20460;-56
2021/01/10 09:50:26;;;;;;;;;;;15.20;57.90;;;;;;5039813;28;19933;-55
2021/01/10 09:52:53;;;;;;;;;;;15.20;57.50;;;;;;5028268;28;20428;-56
2021/01/10 09:55:20;;;;;;;;;;;15.20;57.20;;;;;;5033520;28;20412;-57
2021/01/10 09:57:46;;;;;;;;;;;15.20;56.90;;;;;;5034883;28;20418;-56
2021/01/10 10:00:15;;;;;;;;;;;15.20;56.50;;;;;;5044309;28;20289;-56
2021/01/10 10:02:44;;;;;;;;;;;15.20;56.20;;;;;;5028842;28;20554;-56
2021/01/10 10:05:22;;;;;;;;;;;15.20;55.90;;;;;;5039654;28;20403;-56
2021/01/10 10:07:52;;;;;;;;;;;15.20;55.70;;;;;;5023215;28;19925;-56
2021/01/10 10:10:31;;;;;;;;;;;15.20;55.70;;;;;;5042584;28;20324;-56
2021/01/10 10:12:58;;;;;;;;;;;15.20;55.50;;;;;;5038249;28;19939;-56
2021/01/10 10:15:55;;;;;;;;;;;15.20;55.80;;;;;;5036542;28;19932;-56
2021/01/10 10:18:31;;;;;;;;;;;15.20;55.30;;;;;;5001106;28;20003;-56
2021/01/10 10:21:01;;;;;;;;;;;15.20;55.10;;;;;;4990478;28;19978;-56
2021/01/10 10:23:31;;;;;;;;;;;15.20;55.00;;;;;;5026047;28;19952;-56
2021/01/10 10:26:06;;;;;;;;;;;15.20;55.00;;;;;;5041256;28;19963;-56
2021/01/10 10:28:33;;;;;;;;;;;15.20;54.90;;;;;;5040864;28;19925;-56
2021/01/10 10:31:00;;;;;;;;;;;15.20;54.80;;;;;;5040352;28;19932;-56
2021/01/10 10:33:27;;;;;;;;;;;15.20;54.70;;;;;;5043627;28;19926;-56
2021/01/10 10:35:56;;;;;;;;;;;15.20;54.60;;;;;;5032284;28;20370;-56
2021/01/10 10:38:24;;;;;;;;;;;15.20;54.50;;;;;;5029868;28;20385;-56
2021/01/10 10:40:54;;;;;;;;;;;15.10;54.60;;;;;;5032089;28;19947;-57
2021/01/10 10:43:21;;;;;;;;;;;15.20;54.50;;;;;;5026414;28;19947;-57
2021/01/10 10:45:47;;;;;;;;;;;15.20;54.40;;;;;;5035537;28;19925;-56
2021/01/10 10:48:14;;;;;;;;;;;15.20;54.40;;;;;;5037662;28;19929;-56
2021/01/10 10:50:41;;;;;;;;;;;15.20;54.30;;;;;;5032615;28;19931;-56
2021/01/10 10:53:08;;;;;;;;;;;15.20;54.20;;;;;;5040251;28;19925;-56
2021/01/10 10:55:34;;;;;;;;;;;15.20;54.20;;;;;;5033613;28;19931;-55
2021/01/10 10:58:00;;;;;;;;;;;15.20;54.30;;;;;;5045854;28;19925;-54
2021/01/10 11:00:26;;;;;;;;;;;15.20;54.20;;;;;;5041827;28;20273;-54
2021/01/10 11:02:53;;;;;;;;;;;15.20;54.10;;;;;;5045291;28;20383;-54
2021/01/10 11:05:22;;;;;;;;;;;15.20;54.00;;;;;;5034628;28;19939;-54
2021/01/10 11:07:48;;;;;;;;;;;15.20;54.00;;;;;;5044948;28;19939;-55
2021/01/10 11:10:14;;;;;;;;;;;15.20;53.90;;;;;;5039130;28;19931;-54
2021/01/10 11:12:41;;;;;;;;;;;15.20;53.90;;;;;;5038362;28;19925;-55
2021/01/10 11:15:13;;;;;;;;;;;15.20;53.80;;;;;;5041651;28;19931;-54
2021/01/10 11:17:39;;;;;;;;;;;15.20;53.80;;;;;;5038345;28;19975;-54
2021/01/10 11:20:06;;;;;;;;;;;15.20;53.80;;;;;;5037201;28;19925;-54
2021/01/10 11:22:36;;;;;;;;;;;15.20;53.70;;;;;;5036894;28;19935;-54
2021/01/10 11:25:03;;;;;;;;;;;15.20;53.60;;;;;;5047713;28;20383;-54
2021/01/10 11:27:30;;;;;;;;;;;15.20;53.60;;;;;;5041959;28;20399;-54
2021/01/10 11:29:56;;;;;;;;;;;15.10;53.40;;;;;;5045933;28;19948;-54
2021/01/10 11:32:22;;;;;;;;;;;15.20;53.50;;;;;;5044183;28;19947;-54
2021/01/10 11:34:50;;;;;;;;;;;15.20;53.80;;;;;;5048222;28;19936;-54
2021/01/10 11:37:17;;;;;;;;;;;15.20;54.80;;;;;;5042567;28;19924;-54
2021/01/10 11:39:44;;;;;;;;;;;15.20;54.50;;;;;;5033920;28;19925;-53
2021/01/10 11:42:14;;;;;;;;;;;15.20;55.10;;;;;;5021875;28;22108;-54
2021/01/10 11:44:45;;;;;;;;;;;15.20;55.50;;;;;;5049301;28;19978;-54
2021/01/10 11:47:12;;;;;;;;;;;15.20;55.50;;;;;;5041153;28;19975;-54
2021/01/10 11:49:38;;;;;;;;;;;15.20;55.30;;;;;;5045912;28;19924;-54
2021/01/10 11:52:05;;;;;;;;;;;15.20;55.50;;;;;;5038835;28;19979;-54
2021/01/10 11:54:37;;;;;;;;;;;15.20;55.20;;;;;;5043704;28;20396;-54
2021/01/10 11:57:03;;;;;;;;;;;15.20;55.20;;;;;;5048182;28;19964;-54
2021/01/10 11:59:30;;;;;;;;;;;15.20;55.20;;;;;;5039739;28;19925;-53
2021/01/10 12:01:56;;;;;;;;;;;15.20;55.60;;;;;;5029940;28;19932;-54
2021/01/10 12:04:23;;;;;;;;;;;15.20;55.50;;;;;;5022010;28;20683;-53
2021/01/10 12:06:50;;;;;;;;;;;15.20;55.60;;;;;;5039297;28;19971;-53
2021/01/10 12:09:18;;;;;;;;;;;15.20;55.80;;;;;;5029546;28;20368;-54
2021/01/10 12:11:44;;;;;;;;;;;15.20;55.60;;;;;;5045754;28;20339;-53
2021/01/10 12:14:12;;;;;;;;;;;15.20;55.40;;;;;;5039032;28;19931;-53
2021/01/10 12:16:38;;;;;;;;;;;15.20;55.50;;;;;;5040323;28;20451;-56
2021/01/10 12:19:05;;;;;;;;;;;15.20;55.50;;;;;;5034239;28;19955;-56
2021/01/10 12:21:34;;;;;;;;;;;15.20;55.40;;;;;;5045184;28;20278;-56
2021/01/10 12:24:01;;;;;;;;;;;15.20;55.70;;;;;;5039545;28;19937;-56
2021/01/10 12:26:29;;;;;;;;;;;15.20;55.50;;;;;;5045293;28;19933;-56
2021/01/10 12:28:55;;;;;;;;;;;15.20;55.70;;;;;;5032017;28;19944;-56
2021/01/10 12:31:23;;;;;;;;;;;15.20;55.60;;;;;;5044337;28;19933;-58
2021/01/10 12:33:53;;;;;;;;;;;15.20;55.70;;;;;;5032363;28;19971;-55
2021/01/10 12:36:26;;;;;;;;;;;15.20;55.90;;;;;;5028190;28;19925;-56
2021/01/10 12:38:56;;;;;;;;;;;15.20;55.90;;;;;;5021832;28;20019;-56
2021/01/10 12:41:27;;;;;;;;;;;15.20;55.60;;;;;;5019855;28;19944;-57
2021/01/10 12:43:56;;;;;;;;;;;15.30;56.20;;;;;;5028224;28;19929;-56
2021/01/10 12:46:28;;;;;;;;;;;15.20;55.90;;;;;;5034229;28;19924;-56
2021/01/10 12:48:54;;;;;;;;;;;15.20;55.80;;;;;;5044978;28;19925;-56
2021/01/10 12:51:21;;;;;;;;;;;15.20;56.00;;;;;;5037953;28;20521;-56
2021/01/10 12:53:47;;;;;;;;;;;15.20;56.00;;;;;;5046186;28;20362;-56
2021/01/10 12:56:14;;;;;;;;;;;15.30;56.30;;;;;;5035694;28;19925;-57
2021/01/10 12:58:40;;;;;;;;;;;15.20;56.20;;;;;;5048228;28;19928;-56
2021/01/10 13:01:07;;;;;;;;;;;15.20;56.20;;;;;;5034241;28;19925;-54
2021/01/10 13:03:33;;;;;;;;;;;15.30;56.10;;;;;;5047209;28;19929;-53
2021/01/10 13:05:59;;;;;;;;;;;15.20;56.10;;;;;;5036671;28;21139;-57
2021/01/10 13:08:26;;;;;;;;;;;15.20;56.80;;;;;;5046293;28;19978;-57
2021/01/10 13:10:52;;;;;;;;;;;15.20;56.20;;;;;;5035377;28;19932;-57
2021/01/10 13:13:18;;;;;;;;;;;15.20;56.20;;;;;;5042678;28;19925;-57
2021/01/10 13:15:50;;;;;;;;;;;15.30;56.40;;;;;;5033343;28;19974;-58
2021/01/10 13:18:16;;;;;;;;;;;15.30;56.30;;;;;;5044716;28;19925;-56
2021/01/10 13:20:42;;;;;;;;;;;15.30;56.30;;;;;;5043720;28;19928;-57
2021/01/10 13:23:08;;;;;;;;;;;15.30;57.40;;;;;;5041159;28;19953;-59
2021/01/10 13:25:35;;;;;;;;;;;15.30;57.20;;;;;;5037068;28;19972;-56
2021/01/10 13:28:01;;;;;;;;;;;15.30;56.90;;;;;;5036502;28;19935;-58
2021/01/10 13:30:27;;;;;;;;;;;15.30;56.70;;;;;;5032212;28;19932;-58
2021/01/10 13:32:54;;;;;;;;;;;15.40;58.60;;;;;;5036644;28;19925;-59
2021/01/10 13:35:20;;;;;;;;;;;15.50;60.00;;;;;;5037387;28;19932;-59
2021/01/10 13:37:47;;;;;;;;;;;15.60;60.60;;;;;;5038361;28;19925;-60
2021/01/10 13:40:14;;;;;;;;;;;15.70;61.30;;;;;;5044072;28;20432;-57
2021/01/10 13:42:40;;;;;;;;;;;15.70;60.90;;;;;;5037552;28;19952;-57
2021/01/10 13:45:06;;;;;;;;;;;15.70;61.80;;;;;;5043912;28;19939;-57
2021/01/10 13:47:33;;;;;;;;;;;15.70;62.10;;;;;;5038590;28;19929;-57
2021/01/10 13:49:59;;;;;;;;;;;15.70;61.20;;;;;;5033708;28;19948;-58
2021/01/10 13:52:25;;;;;;;;;;;15.70;61.10;;;;;;5019020;28;19924;-57
2021/01/10 13:54:52;;;;;;;;;;;15.70;61.20;;;;;;5038638;28;19986;-57
2021/01/10 13:57:27;;;;;;;;;;;15.70;61.00;;;;;;5036242;28;19960;-57
2021/01/10 13:59:53;;;;;;;;;;;15.70;60.90;;;;;;5043626;28;20305;-58
2021/01/10 14:02:19;;;;;;;;;;;15.70;60.90;;;;;;5041641;28;19935;-56
2021/01/10 14:04:46;;;;;;;;;;;15.80;60.70;;;;;;5015580;28;20365;-55
2021/01/10 14:07:12;;;;;;;;;;;15.80;60.60;;;;;;5041950;28;19937;-56
2021/01/10 14:09:38;;;;;;;;;;;15.80;60.50;;;;;;5028464;28;19933;-56
2021/01/10 14:12:05;;;;;;;;;;;15.80;60.30;;;;;;5047170;28;20408;-54
2021/01/10 14:14:31;;;;;;;;;;;15.80;60.20;;;;;;5044896;28;20348;-54
2021/01/10 14:16:58;;;;;;;;;;;15.90;60.20;;;;;;5049948;28;19931;-54
2021/01/10 14:19:24;;;;;;;;;;;15.90;60.20;;;;;;5046957;28;19936;-54
2021/01/10 14:21:53;;;;;;;;;;;15.90;60.30;;;;;;5049283;28;19933;-54
2021/01/10 14:24:19;;;;;;;;;;;15.90;60.20;;;;;;5044785;28;19935;-54